Погода Сохачевна 2 недели

Мазовецкое воеводство, Польша

17 - 30 июля
  • 17июля
    Сегодня
    +16°
    +29°
    Ясно и безоблачно
    ВремяПогодаТемператураВлажностьДавлениеВетер, м/сВероятность осадков
    02:00Ясно и безоблачно+20°C87 %754 мм1.8 м/с2 %
    05:00Облачно с прояснениями+19°C91 %755 мм2.6 м/с2 %
    08:00Небольшая облачность+24°C78 %755 мм2.5 м/с2 %
    11:00Практически безоблачно+27°C49 %756 мм3.4 м/с8 %
    14:00Ясно и безоблачно+28°C37 %756 мм3.8 м/с2 %
    17:00Пасмурно, сплошная облачность+28°C40 %756 мм4.3 м/с2 %
    20:00Ясно и безоблачно+25°C53 %757 мм2.1 м/с2 %
    23:00Ясно и безоблачно+20°C71 %758 мм2.3 м/с2 %
  • 18июля
    Четверг
    +15°
    +27°
    Облачно с прояснениями
    ВремяПогодаТемператураВлажностьДавлениеВетер, м/сВероятность осадков
    02:00Ясно и безоблачно+18°C77 %758 мм1.8 м/с2 %
    05:00Ясно и безоблачно+16°C85 %758 мм1.8 м/с2 %
    08:00Ясно и безоблачно+21°C68 %759 мм1.0 м/с2 %
    11:00Практически безоблачно+25°C47 %759 мм3.7 м/с5 %
    14:00Облачно с прояснениями+26°C42 %759 мм4.5 м/с13 %
    17:00Практически безоблачно+27°C42 %759 мм4.6 м/с1 %
    20:00Ясно и безоблачно+24°C50 %759 мм3.6 м/с2 %
    23:00Облачно с прояснениями+19°C67 %760 мм2.0 м/с2 %
  • 19июля
    Пятница
    +15°
    +28°
    Облачно с прояснениями
    ВремяПогодаТемператураВлажностьДавлениеВетер, м/сВероятность осадков
    02:00Облачно с прояснениями+17°C82 %760 мм1.6 м/с2 %
    05:00Практически безоблачно+15°C89 %759 мм1.5 м/с2 %
    08:00Облачно с прояснениями+20°C74 %760 мм0.8 м/с2 %
    11:00Облачно с прояснениями+24°C47 %759 мм2.2 м/с2 %
    14:00Облачно с прояснениями+26°C39 %758 мм3.2 м/с2 %
    17:00Облачно с прояснениями+27°C40 %757 мм3.8 м/с2 %
    20:00Ясно и безоблачно+25°C49 %756 мм2.3 м/с2 %
    23:00Ясно и безоблачно+19°C64 %756 мм2.2 м/с2 %
  • 20июля
    Суббота
    +13°
    +29°
    Ясно и безоблачно
    ВремяПогодаТемператураВлажностьДавлениеВетер, м/сВероятность осадков
    02:00Ясно и безоблачно+15°C79 %756 мм2.4 м/с2 %
    05:00Практически безоблачно+16°C77 %755 мм0.9 м/с2 %
    08:00Небольшая облачность+20°C64 %755 мм0.1 м/с2 %
    11:00Ясно и безоблачно+25°C42 %754 мм2.0 м/с2 %
    14:00Ясно и безоблачно+27°C36 %753 мм2.5 м/с2 %
    17:00Ясно и безоблачно+28°C34 %752 мм2.9 м/с2 %
    20:00Ясно и безоблачно+25°C41 %751 мм2.0 м/с2 %
    23:00Ясно и безоблачно+19°C64 %751 мм2.0 м/с2 %
  • 21июля
    Воскресенье
    +17°
    +32°
    Ясно и безоблачно
    ВремяПогодаТемператураВлажностьДавлениеВетер, м/сВероятность осадков
    02:00Ясно и безоблачно+17°C70 %751 мм1.3 м/с2 %
    05:00Ясно и безоблачно+14°C89 %750 мм2.3 м/с2 %
    08:00Практически безоблачно+21°C65 %750 мм0.7 м/с2 %
    11:00Облачно с прояснениями+27°C39 %750 мм0.2 м/с2 %
    14:00Ясно и безоблачно+29°C32 %749 мм0.5 м/с2 %
    17:00Ясно и безоблачно+31°C28 %747 мм3.7 м/с2 %
    20:00Ясно и безоблачно+27°C39 %748 мм3.4 м/с2 %
    23:00Облачно с прояснениями+22°C44 %748 мм3.2 м/с2 %
Мы используем cookies
Соглашаюсь